Weather at Ravenswood Substation Helipad [CLOSED]

Public forecast

Using degrees Fahrenheit for public forecast. Weather courtesy of forecast.io.

Closest aviation weather report (METAR) to Ravenswood Substation Helipad

Closest report is Palo Alto Airport of Santa Clara County, 2.3 nm (4.2 km) SSE.

2024/05/24 18:47 (retrieved 59 minutes ago)

KPAO 241847Z 29010G15KT 10SM BKN025 14/08 A2995

Closest aviation forecast (TAF) to Ravenswood Substation Helipad

Closest forecast is Norman Y. Mineta San Jose International Airport, 12.7 nm (23.6 km) SE.

2024/05/24 18:36 (retrieved 1 hour ago)

TAF KSJC 241735Z 2418/2518 24005KT P6SM FEW025 FM242000 31015KT P6SM SKC FM250600 30005KT P6SM BKN020